Time;durP1;ratioP1;P1;durP2;ratioP2;P2;SDS_P1;SDS_P2;PMS_P1;PMS_P2;Temp;Humidity;BMP_temperature;BMP_pressure;BME280_temperature;BME280_humidity;BME280_pressure;Samples;Min_cycle;Max_cycle;Signal;HPM_P1;HPM_P2
2022/04/22 00:00:48;;;;;;;1.63;1.50;;;22.20;39.80;;;;;;5002602;28;88845;-68
2022/04/22 00:03:16;;;;;;;2.70;1.70;;;22.20;39.80;;;;;;4998812;28;88650;-68
2022/04/22 00:05:45;;;;;;;2.93;1.60;;;22.20;39.80;;;;;;4994000;28;90574;-68
2022/04/22 00:08:13;;;;;;;1.73;1.50;;;22.10;39.70;;;;;;5001881;28;89985;-68
2022/04/22 00:13:24;;;;;;;2.77;1.87;;;22.10;39.80;;;;;;4988443;28;88640;-69
2022/04/22 00:15:52;;;;;;;2.93;1.93;;;22.00;39.70;;;;;;4979872;28;90700;-69
2022/04/22 00:18:20;;;;;;;2.03;1.47;;;22.00;39.70;;;;;;4983063;28;89892;-68
2022/04/22 00:20:49;;;;;;;1.83;1.33;;;22.00;39.70;;;;;;4983785;28;88482;-68
2022/04/22 00:23:17;;;;;;;2.20;1.77;;;21.90;40.30;;;;;;4986912;28;88529;-69
2022/04/22 00:25:45;;;;;;;1.57;1.30;;;22.00;39.70;;;;;;4982335;28;92498;-69
2022/04/22 00:28:13;;;;;;;2.93;1.97;;;21.90;39.60;;;;;;4995635;28;89263;-68
2022/04/22 00:30:41;;;;;;;2.97;1.50;;;22.00;39.70;;;;;;4989556;28;88967;-69
2022/04/22 00:33:09;;;;;;;1.60;1.40;;;22.00;39.60;;;;;;4965355;28;88530;-69
2022/04/22 00:35:37;;;;;;;2.03;1.83;;;21.90;39.60;;;;;;4982085;28;91771;-69
2022/04/22 00:38:06;;;;;;;1.30;1.20;;;21.90;39.60;;;;;;4994613;28;90421;-68
2022/04/22 00:40:34;;;;;;;3.90;1.67;;;21.90;39.50;;;;;;5002437;28;89203;-68
2022/04/22 00:43:14;;;;;;;2.30;1.53;;;21.90;39.40;;;;;;5000690;28;90086;-68
2022/04/22 00:45:42;;;;;;;1.70;1.50;;;21.90;39.40;;;;;;5001205;28;89507;-68
2022/04/22 00:48:10;;;;;;;1.23;1.13;;;21.90;39.40;;;;;;4995585;28;88552;-68
2022/04/22 00:50:38;;;;;;;3.23;1.53;;;21.90;39.40;;;;;;4983830;28;88433;-68
2022/04/22 00:53:08;;;;;;;1.80;1.70;;;21.90;39.40;;;;;;4980552;28;88460;-68
2022/04/22 00:55:37;;;;;;;2.33;1.73;;;21.90;39.40;;;;;;5000523;28;92322;-68
2022/04/22 00:58:05;;;;;;;2.07;1.40;;;21.90;39.40;;;;;;5001266;28;92161;-68
2022/04/22 01:00:33;;;;;;;4.03;1.73;;;21.90;39.40;;;;;;5002156;28;91778;-68
2022/04/22 01:03:01;;;;;;;1.93;1.40;;;21.80;39.30;;;;;;4996249;28;88542;-68
2022/04/22 01:11:01;;;;;;;5.10;1.83;;;21.80;39.30;;;;;;5001290;28;89758;-68
2022/04/22 01:13:29;;;;;;;2.30;1.63;;;21.80;39.30;;;;;;4993516;28;88661;-67
2022/04/22 01:15:57;;;;;;;5.43;1.80;;;21.80;39.30;;;;;;4992318;28;90150;-68
2022/04/22 01:18:26;;;;;;;1.40;1.30;;;21.80;39.30;;;;;;5001355;28;89126;-68
2022/04/22 01:20:54;;;;;;;3.03;1.63;;;21.90;39.30;;;;;;5000915;28;88759;-68
2022/04/22 01:23:24;;;;;;;2.33;1.57;;;21.80;39.30;;;;;;4981408;28;88743;-68
2022/04/22 01:25:53;;;;;;;1.90;1.40;;;21.80;39.30;;;;;;4986776;28;88573;-68
2022/04/22 01:28:21;;;;;;;1.90;1.70;;;21.80;39.30;;;;;;5000411;28;90179;-68
2022/04/22 01:30:49;;;;;;;2.70;1.20;;;21.70;39.20;;;;;;5001310;28;88391;-68
2022/04/22 01:33:17;;;;;;;2.60;1.77;;;21.70;39.30;;;;;;4981922;28;88774;-67
2022/04/22 01:35:45;;;;;;;2.33;1.80;;;21.60;39.20;;;;;;4980911;28;90637;-68
2022/04/22 01:38:13;;;;;;;1.37;1.27;;;21.60;39.30;;;;;;4983113;28;89607;-68
2022/04/22 01:40:43;;;;;;;2.13;1.50;;;21.60;39.30;;;;;;4980114;28;88590;-68
2022/04/22 01:43:11;;;;;;;1.40;1.30;;;21.60;39.30;;;;;;4961730;28;88495;-68
2022/04/22 01:45:39;;;;;;;1.33;1.10;;;21.70;39.30;;;;;;4995554;28;89405;-68
2022/04/22 01:48:07;;;;;;;1.50;1.20;;;21.70;39.40;;;;;;4994101;28;90075;-68
2022/04/22 01:50:34;;;;;;;1.30;1.20;;;21.70;39.30;;;;;;5001386;28;91726;-68
2022/04/22 01:53:03;;;;;;;1.80;1.67;;;21.70;39.30;;;;;;4981316;28;90288;-67
2022/04/22 01:55:31;;;;;;;2.13;1.50;;;21.70;39.30;;;;;;4981288;28;90286;-68
2022/04/22 01:58:01;;;;;;;1.30;1.20;;;21.70;39.30;;;;;;4999123;28;90105;-67
2022/04/22 02:00:29;;;;;;;2.40;1.40;;;21.70;39.30;;;;;;5000473;28;89219;-68
2022/04/22 02:02:57;;;;;;;2.33;1.70;;;21.70;39.30;;;;;;4992882;28;88560;-68
2022/04/22 02:05:25;;;;;;;2.40;1.40;;;21.60;39.20;;;;;;5001040;28;90598;-67
2022/04/22 02:07:53;;;;;;;1.90;1.63;;;21.60;39.30;;;;;;4999909;28;90189;-67
2022/04/22 02:10:21;;;;;;;2.37;1.60;;;21.60;39.30;;;;;;4999786;28;89750;-67
2022/04/22 02:12:49;;;;;;;2.20;1.77;;;21.60;39.30;;;;;;4980591;28;88422;-67
2022/04/22 02:15:20;;;;;;;1.90;1.70;;;21.50;39.20;;;;;;4980966;28;91057;-67
2022/04/22 02:17:48;;;;;;;3.17;1.57;;;21.50;39.20;;;;;;4993289;28;90092;-67
2022/04/22 02:20:16;;;;;;;1.70;1.40;;;21.60;39.90;;;;;;4999853;28;88917;-67
2022/04/22 02:22:44;;;;;;;1.43;1.33;;;21.60;39.30;;;;;;4981873;28;88269;-67
2022/04/22 02:25:12;;;;;;;1.67;1.40;;;21.60;39.20;;;;;;4980531;28;90591;-67
2022/04/22 02:30:28;;;;;;;1.57;1.47;;;21.60;39.30;;;;;;4998906;28;88490;-68
2022/04/22 02:32:56;;;;;;;3.43;2.07;;;21.60;39.20;;;;;;4992394;28;88591;-67
2022/04/22 02:35:24;;;;;;;2.60;1.33;;;21.60;39.20;;;;;;4999818;28;90549;-67
2022/04/22 02:37:52;;;;;;;1.00;1.00;;;21.60;39.10;;;;;;4999792;28;92242;-67
2022/04/22 02:45:50;;;;;;;1.93;1.40;;;21.80;39.10;;;;;;4998864;28;91673;-68
2022/04/22 02:48:18;;;;;;;2.57;1.73;;;21.70;39.00;;;;;;4999345;28;89472;-68
2022/04/22 02:50:46;;;;;;;1.70;1.20;;;21.70;39.10;;;;;;4995953;28;89740;-68
2022/04/22 02:53:14;;;;;;;1.67;1.30;;;21.70;39.10;;;;;;4991168;28;88492;-68
2022/04/22 02:55:45;;;;;;;1.53;1.33;;;21.70;39.10;;;;;;4999011;28;90544;-67
2022/04/22 02:58:13;;;;;;;1.97;1.20;;;21.70;39.10;;;;;;4999646;28;89590;-67
2022/04/22 03:00:41;;;;;;;1.50;1.33;;;21.70;39.10;;;;;;4992523;28;88833;-68
2022/04/22 03:03:10;;;;;;;2.23;1.40;;;21.70;39.10;;;;;;4993309;28;88595;-67
2022/04/22 03:05:38;;;;;;;1.43;1.30;;;21.60;39.10;;;;;;4999360;28;91196;-68
2022/04/22 03:08:08;;;;;;;1.93;1.50;;;21.60;39.10;;;;;;4986029;28;92284;-68
2022/04/22 03:10:36;;;;;;;3.00;2.13;;;21.50;39.10;;;;;;4995410;28;88620;-68
2022/04/22 03:13:05;;;;;;;2.47;1.37;;;21.50;39.10;;;;;;4998292;28;88665;-68
2022/04/22 03:15:33;;;;;;;2.23;1.80;;;21.50;39.20;;;;;;5000434;28;88996;-68
2022/04/22 03:18:01;;;;;;;1.67;1.50;;;21.50;39.10;;;;;;4999287;28;90358;-68
2022/04/22 03:20:31;;;;;;;2.10;1.40;;;21.40;39.10;;;;;;4972648;28;90566;-68
2022/04/22 03:22:59;;;;;;;3.73;1.80;;;21.40;39.10;;;;;;4991083;28;88299;-67
2022/04/22 03:25:27;;;;;;;2.77;1.70;;;21.40;39.20;;;;;;4999545;28;89618;-67
2022/04/22 03:27:55;;;;;;;5.27;2.10;;;21.40;39.20;;;;;;4998596;28;89036;-68
2022/04/22 03:30:23;;;;;;;1.97;1.30;;;21.40;39.20;;;;;;4997760;28;89180;-68
2022/04/22 03:32:51;;;;;;;2.27;1.73;;;21.50;39.20;;;;;;4999489;28;89261;-67
2022/04/22 03:35:19;;;;;;;3.73;1.47;;;21.50;39.20;;;;;;4999031;28;90494;-67
2022/04/22 03:37:49;;;;;;;2.30;1.37;;;21.50;39.10;;;;;;4999011;28;89746;-67
2022/04/22 03:40:17;;;;;;;2.00;1.60;;;21.40;39.20;;;;;;4996387;28;92905;-68
2022/04/22 03:42:44;;;;;;;1.40;1.30;;;21.50;39.20;;;;;;4985779;28;88441;-67
2022/04/22 03:45:13;;;;;;;4.57;1.50;;;21.50;39.20;;;;;;4998510;28;89428;-67
2022/04/22 03:47:41;;;;;;;3.87;1.40;;;21.50;39.20;;;;;;4998774;28;91869;-67
2022/04/22 03:50:10;;;;;;;1.97;1.70;;;21.50;39.20;;;;;;4998068;28;89014;-68
2022/04/22 03:52:38;;;;;;;1.50;1.40;;;21.50;39.20;;;;;;4979641;28;88473;-67
2022/04/22 03:55:08;;;;;;;1.43;1.20;;;21.50;39.20;;;;;;4986227;28;90115;-68
2022/04/22 04:00:22;;;;;;;1.43;1.33;;;21.50;39.20;;;;;;4992911;28;88385;-68
2022/04/22 04:02:50;;;;;;;1.33;1.10;;;21.50;39.20;;;;;;4986003;28;88648;-68
2022/04/22 04:05:18;;;;;;;3.67;1.80;;;21.50;39.30;;;;;;4998517;28;92940;-68
2022/04/22 04:07:46;;;;;;;1.53;1.20;;;21.50;39.30;;;;;;4998728;28;92108;-68
2022/04/22 04:16:01;;;;;;;1.73;1.43;;;21.50;39.40;;;;;;4986088;28;89887;-68
2022/04/22 04:18:30;;;;;;;2.47;1.37;;;21.40;39.40;;;;;;5001586;28;88510;-68
2022/04/22 04:23:44;;;;;;;1.70;1.20;;;21.50;39.60;;;;;;4983081;28;88604;-70
2022/04/22 04:26:14;;;;;;;1.50;1.40;;;21.40;39.50;;;;;;4994278;28;93550;-68
2022/04/22 04:28:43;;;;;;;2.00;1.13;;;21.40;39.60;;;;;;5002241;28;90039;-68
2022/04/22 04:31:12;;;;;;;2.77;1.30;;;21.40;39.60;;;;;;4988390;28;92221;-68
2022/04/22 04:33:40;;;;;;;2.87;1.13;;;21.40;39.70;;;;;;5001833;28;88564;-68
2022/04/22 04:36:11;;;;;;;1.50;1.40;;;21.40;39.70;;;;;;5000077;28;90972;-68
2022/04/22 04:38:40;;;;;;;1.70;1.43;;;21.40;39.80;;;;;;5001825;28;88478;-67
2022/04/22 04:41:08;;;;;;;1.70;1.23;;;21.40;39.80;;;;;;4983282;28;88775;-66
2022/04/22 04:43:38;;;;;;;1.10;1.00;;;21.40;39.90;;;;;;4995709;28;88672;-66
2022/04/22 04:46:06;;;;;;;1.83;1.27;;;21.30;39.90;;;;;;4981695;28;89802;-66
2022/04/22 04:48:35;;;;;;;2.10;1.10;;;21.40;40.10;;;;;;4983185;28;89861;-68
2022/04/22 04:51:03;;;;;;;1.23;1.13;;;21.40;40.20;;;;;;4981487;28;88751;-68
2022/04/22 04:53:31;;;;;;;2.30;1.47;;;21.40;40.20;;;;;;4992301;28;88646;-65
2022/04/22 04:55:59;;;;;;;2.07;1.63;;;21.50;41.00;;;;;;4995593;28;90596;-67
2022/04/22 04:58:27;;;;;;;5.17;2.30;;;21.50;40.60;;;;;;5001145;28;92640;-67
2022/04/22 05:00:59;;;;;;;3.73;1.67;;;21.50;40.70;;;;;;4984104;28;90837;-66
2022/04/22 05:03:28;;;;;;;3.07;1.57;;;21.50;40.70;;;;;;4992739;28;88510;-67
2022/04/22 05:05:58;;;;;;;1.70;1.60;;;21.50;40.80;;;;;;4999735;28;89913;-67
2022/04/22 05:08:27;;;;;;;2.47;1.50;;;21.40;40.70;;;;;;5000721;28;89490;-66
2022/04/22 05:10:55;;;;;;;3.87;1.50;;;21.50;40.90;;;;;;5000506;28;88505;-66
2022/04/22 05:13:23;;;;;;;3.13;1.80;;;21.50;41.00;;;;;;5001401;28;88525;-68
2022/04/22 05:15:53;;;;;;;2.07;1.50;;;21.50;41.00;;;;;;5001119;28;90576;-68
2022/04/22 05:18:22;;;;;;;3.77;1.80;;;21.50;41.10;;;;;;4991153;28;90359;-67
2022/04/22 05:20:50;;;;;;;1.57;1.33;;;21.40;41.20;;;;;;4982549;28;89874;-68
2022/04/22 05:23:18;;;;;;;1.37;1.23;;;21.50;41.30;;;;;;4980613;28;89269;-68
2022/04/22 05:25:46;;;;;;;1.43;1.17;;;21.50;41.40;;;;;;4977118;28;90618;-67
2022/04/22 05:28:14;;;;;;;2.73;1.90;;;21.50;41.50;;;;;;4992341;28;90137;-67
2022/04/22 05:33:29;;;;;;;2.47;1.40;;;21.50;41.50;;;;;;4981392;28;88625;-67
2022/04/22 05:35:58;;;;;;;2.07;1.50;;;21.60;41.40;;;;;;4980842;28;90755;-68
2022/04/22 05:38:26;;;;;;;2.67;1.67;;;21.70;41.50;;;;;;4980657;28;89378;-67
2022/04/22 05:40:54;;;;;;;6.57;1.50;;;21.70;41.70;;;;;;4980934;28;88946;-67
2022/04/22 05:43:22;;;;;;;2.10;1.90;;;21.70;41.30;;;;;;4980652;28;88595;-67
2022/04/22 05:45:50;;;;;;;1.70;1.57;;;21.70;41.90;;;;;;4981073;28;90599;-67
2022/04/22 05:48:19;;;;;;;1.60;1.50;;;21.70;41.30;;;;;;4969191;28;92402;-68
2022/04/22 05:50:48;;;;;;;2.33;1.70;;;21.70;41.30;;;;;;4979288;28;88974;-67
2022/04/22 05:53:16;;;;;;;3.77;1.70;;;21.70;41.20;;;;;;4970301;28;88512;-68
2022/04/22 05:55:45;;;;;;;3.33;1.33;;;21.70;41.20;;;;;;4967715;28;89610;-68
2022/04/22 05:58:14;;;;;;;2.37;1.40;;;21.80;41.30;;;;;;4976561;28;88996;-67
2022/04/22 06:00:42;;;;;;;4.53;2.10;;;21.80;41.20;;;;;;4978360;28;89071;-67
2022/04/22 06:03:10;;;;;;;2.40;1.27;;;21.80;41.20;;;;;;4980498;28;88318;-68
2022/04/22 06:05:38;;;;;;;3.87;1.80;;;21.80;41.10;;;;;;4980236;28;89524;-67
2022/04/22 06:10:53;;;;;;;1.87;1.60;;;21.70;41.10;;;;;;4980854;28;88573;-68
2022/04/22 06:13:21;;;;;;;2.03;1.60;;;21.80;41.90;;;;;;4981397;28;88465;-68
2022/04/22 06:15:49;;;;;;;2.20;1.67;;;21.80;41.10;;;;;;4981002;28;90054;-67
2022/04/22 06:18:17;;;;;;;2.77;1.73;;;21.80;41.10;;;;;;4978658;28;90090;-67
2022/04/22 06:20:45;;;;;;;1.67;1.43;;;21.80;41.80;;;;;;4977731;28;88521;-67
2022/04/22 06:23:15;;;;;;;4.13;1.83;;;21.80;41.70;;;;;;4980253;28;88644;-68
2022/04/22 06:25:46;;;;;;;4.53;2.07;;;21.80;41.10;;;;;;4977238;28;89865;-67
2022/04/22 06:28:14;;;;;;;3.07;1.53;;;21.70;41.00;;;;;;4977718;28;90325;-67
2022/04/22 06:30:43;;;;;;;1.90;1.80;;;21.80;41.10;;;;;;4979825;28;90308;-67
2022/04/22 06:33:12;;;;;;;2.77;1.70;;;21.80;41.10;;;;;;4979729;28;88179;-66
2022/04/22 06:35:41;;;;;;;1.93;1.53;;;21.80;41.10;;;;;;4980672;28;90697;-67
2022/04/22 06:38:09;;;;;;;2.73;1.50;;;21.70;41.00;;;;;;4980109;28;90053;-68
2022/04/22 06:46:12;;;;;;;2.63;1.50;;;21.70;41.20;;;;;;4980250;28;90291;-68
2022/04/22 06:48:40;;;;;;;5.53;2.10;;;21.70;41.40;;;;;;4980199;28;89453;-68
2022/04/22 06:51:12;;;;;;;3.57;1.90;;;21.70;41.60;;;;;;4980544;28;88777;-68
2022/04/22 06:53:42;;;;;;;2.77;1.60;;;21.70;41.70;;;;;;4980500;28;88402;-67
2022/04/22 06:56:13;;;;;;;4.23;1.90;;;21.70;41.80;;;;;;4977932;28;89512;-68
2022/04/22 06:58:42;;;;;;;3.37;2.30;;;21.70;42.60;;;;;;4976475;28;88980;-68
2022/04/22 07:01:10;;;;;;;3.10;2.30;;;21.70;42.00;;;;;;4979317;28;89923;-69
2022/04/22 07:04:01;;;;;;;2.20;1.73;;;21.70;42.00;;;;;;4979471;28;88649;-69
2022/04/22 07:06:31;;;;;;;3.13;2.20;;;21.60;41.90;;;;;;4975422;28;93457;-69
2022/04/22 07:09:00;;;;;;;3.43;2.00;;;21.60;42.00;;;;;;4978638;28;90640;-69
2022/04/22 07:11:31;;;;;;;4.67;2.03;;;21.50;41.90;;;;;;4980010;28;91188;-68
2022/04/22 07:14:00;;;;;;;2.73;2.00;;;21.50;41.90;;;;;;4979952;28;88511;-67
2022/04/22 07:16:28;;;;;;;3.17;2.50;;;21.40;41.90;;;;;;4977453;28;93875;-68
2022/04/22 07:18:59;;;;;;;3.57;2.13;;;21.40;42.00;;;;;;4978984;28;90064;-69
2022/04/22 07:21:28;;;;;;;2.13;1.83;;;21.30;41.90;;;;;;4979377;28;88395;-68
2022/04/22 07:23:59;;;;;;;2.20;1.70;;;21.30;41.90;;;;;;4979528;28;88583;-68
2022/04/22 07:26:28;;;;;;;2.73;2.10;;;21.30;42.60;;;;;;4979174;28;90634;-68
2022/04/22 07:28:58;;;;;;;2.10;1.93;;;21.40;42.00;;;;;;4978916;28;89274;-68
2022/04/22 07:31:27;;;;;;;2.13;1.77;;;21.40;42.00;;;;;;4979540;28;91516;-69
2022/04/22 07:33:56;;;;;;;2.80;2.03;;;21.40;41.90;;;;;;4979396;28;88313;-68
2022/04/22 07:36:25;;;;;;;2.87;2.20;;;21.40;41.90;;;;;;4979200;28;90837;-70
2022/04/22 07:38:53;;;;;;;2.60;2.27;;;21.50;41.80;;;;;;4978687;28;90546;-68
2022/04/22 07:41:23;;;;;;;4.13;2.30;;;21.40;41.80;;;;;;4983907;28;88560;-68
2022/04/22 07:46:47;;;;;;;3.53;2.23;;;21.40;41.80;;;;;;4980831;28;90370;-69
2022/04/22 07:49:16;;;;;;;2.23;2.03;;;21.40;41.90;;;;;;4982188;28;89536;-67
2022/04/22 07:51:44;;;;;;;3.63;2.77;;;21.30;41.80;;;;;;4982988;28;89440;-68
2022/04/22 07:54:13;;;;;;;4.67;2.80;;;21.30;41.80;;;;;;4982172;28;88506;-66
2022/04/22 07:56:41;;;;;;;7.30;2.50;;;21.30;41.80;;;;;;4982494;28;92502;-66
2022/04/22 07:59:11;;;;;;;5.30;3.40;;;21.20;41.80;;;;;;4982199;28;90305;-65
2022/04/22 08:01:39;;;;;;;10.00;4.80;;;21.30;42.00;;;;;;4976539;28;91411;-65
2022/04/22 08:04:09;;;;;;;6.30;4.07;;;21.40;42.20;;;;;;4981750;28;88820;-65
2022/04/22 08:06:38;;;;;;;5.43;3.10;;;21.40;42.20;;;;;;4981034;28;89155;-67
2022/04/22 08:09:06;;;;;;;4.90;3.23;;;21.50;42.20;;;;;;4982826;28;89915;-65
2022/04/22 08:11:35;;;;;;;6.60;3.00;;;21.50;42.20;;;;;;4981907;28;88938;-65
2022/04/22 08:14:03;;;;;;;4.40;2.90;;;21.50;42.20;;;;;;4982883;28;88209;-65
2022/04/22 08:16:32;;;;;;;3.03;2.73;;;21.50;42.20;;;;;;4981959;28;90499;-65
2022/04/22 08:19:01;;;;;;;4.03;2.60;;;21.50;42.20;;;;;;4981784;28;90105;-66
2022/04/22 08:21:33;;;;;;;4.23;2.60;;;21.50;42.20;;;;;;4981586;28;88970;-66
2022/04/22 08:24:01;;;;;;;3.80;2.00;;;21.50;42.20;;;;;;4982676;28;88175;-65
2022/04/22 08:26:31;;;;;;;4.43;2.90;;;21.50;42.10;;;;;;4982176;28;90651;-65
2022/04/22 08:29:01;;;;;;;2.87;2.37;;;21.50;42.10;;;;;;4982027;28;90003;-65
2022/04/22 08:31:29;;;;;;;4.23;2.67;;;21.50;42.10;;;;;;4982274;28;88942;-65
2022/04/22 08:33:59;;;;;;;4.23;2.57;;;21.50;42.10;;;;;;4981706;28;88666;-65
2022/04/22 08:36:28;;;;;;;5.07;2.13;;;21.50;42.00;;;;;;4981778;28;89698;-65
2022/04/22 08:38:57;;;;;;;3.07;2.20;;;21.60;42.10;;;;;;4981288;28;91416;-66
2022/04/22 08:41:25;;;;;;;3.47;2.83;;;21.60;42.10;;;;;;4981890;28;89743;-65
2022/04/22 08:43:53;;;;;;;6.77;2.20;;;21.60;42.10;;;;;;4981376;28;88485;-65
2022/04/22 08:51:55;;;;;;;2.47;2.10;;;21.60;41.90;;;;;;4980623;28;89021;-65
2022/04/22 08:54:31;;;;;;;4.17;2.57;;;21.60;41.90;;;;;;4981653;28;88600;-65
2022/04/22 08:56:59;;;;;;;2.73;2.10;;;21.60;41.90;;;;;;4978119;28;90602;-65
2022/04/22 08:59:27;;;;;;;3.87;2.53;;;21.60;41.90;;;;;;4975824;28;89074;-65
2022/04/22 09:01:56;;;;;;;5.73;2.30;;;21.60;41.90;;;;;;4969955;28;88449;-65
2022/04/22 09:04:27;;;;;;;2.20;2.00;;;21.60;41.80;;;;;;4977756;28;88484;-65
2022/04/22 09:06:55;;;;;;;4.27;2.10;;;21.60;41.70;;;;;;4970337;28;94014;-66
2022/04/22 09:09:23;;;;;;;5.83;2.00;;;21.60;41.70;;;;;;4978903;28;93220;-66
2022/04/22 09:11:51;;;;;;;2.93;2.30;;;21.60;41.70;;;;;;4979610;28;88641;-65
2022/04/22 09:14:19;;;;;;;2.60;2.40;;;21.70;41.70;;;;;;4981586;28;88425;-65
2022/04/22 09:16:48;;;;;;;3.57;2.20;;;21.60;41.60;;;;;;4980980;28;92990;-65
2022/04/22 09:19:18;;;;;;;5.07;2.33;;;21.50;41.50;;;;;;4980904;28;90382;-65
2022/04/22 09:21:57;;;;;;;3.43;2.20;;;21.40;41.50;;;;;;4979217;28;88539;-65
2022/04/22 09:24:25;;;;;;;4.00;2.63;;;21.30;41.50;;;;;;4979110;28;88348;-65
2022/04/22 09:27:04;;;;;;;2.37;2.00;;;21.40;41.60;;;;;;4977871;28;90674;-65
2022/04/22 09:29:44;;;;;;;3.03;2.33;;;21.30;41.50;;;;;;4978761;28;88618;-65
2022/04/22 09:32:13;;;;;;;3.40;2.60;;;21.30;41.50;;;;;;4980870;28;89699;-66
2022/04/22 09:34:42;;;;;;;3.27;2.23;;;21.30;41.50;;;;;;4980490;28;88505;-65
2022/04/22 09:42:49;;;;;;;3.90;2.17;;;21.40;41.40;;;;;;4997219;28;88645;-66
2022/04/22 09:45:17;;;;;;;3.40;2.43;;;21.50;41.40;;;;;;4976894;28;88662;-65
2022/04/22 09:47:45;;;;;;;5.63;2.27;;;21.50;41.40;;;;;;4988214;28;90715;-65
2022/04/22 09:50:14;;;;;;;3.40;2.17;;;21.50;41.20;;;;;;4991810;28;89297;-65
2022/04/22 09:52:46;;;;;;;3.77;2.40;;;21.50;41.20;;;;;;4992493;28;88463;-65
2022/04/22 09:55:15;;;;;;;9.70;2.30;;;21.50;41.20;;;;;;4987961;28;88500;-65
2022/04/22 09:57:53;;;;;;;5.13;1.87;;;21.50;41.10;;;;;;4985106;28;90781;-65
2022/04/22 10:00:22;;;;;;;3.33;2.37;;;21.50;41.10;;;;;;4987446;28;93423;-65
2022/04/22 10:02:51;;;;;;;2.60;2.17;;;21.60;41.10;;;;;;4975665;28;88762;-65
2022/04/22 10:05:19;;;;;;;4.20;2.30;;;21.60;41.10;;;;;;4977756;28;88510;-66
2022/04/22 10:07:50;;;;;;;6.13;2.13;;;21.50;40.90;;;;;;4977209;28;92370;-66
2022/04/22 10:10:18;;;;;;;3.03;2.40;;;21.50;41.00;;;;;;4973225;28;90168;-66
2022/04/22 10:12:47;;;;;;;2.00;1.80;;;21.50;40.90;;;;;;4979615;28;88892;-66
2022/04/22 10:15:15;;;;;;;2.37;1.83;;;21.40;40.80;;;;;;4979680;28;88546;-66
2022/04/22 10:17:44;;;;;;;2.93;1.87;;;21.40;40.80;;;;;;4978674;28;89333;-66
2022/04/22 10:20:12;;;;;;;2.97;2.10;;;21.30;40.80;;;;;;4978554;28;90094;-66
2022/04/22 10:22:40;;;;;;;3.13;1.83;;;21.30;40.70;;;;;;4978849;28;89861;-67
2022/04/22 10:25:10;;;;;;;4.70;2.80;;;21.40;40.70;;;;;;4984894;28;88302;-66
2022/04/22 10:27:38;;;;;;;4.53;2.40;;;21.40;40.70;;;;;;4985857;28;92594;-66
2022/04/22 10:30:07;;;;;;;3.77;2.10;;;21.40;40.50;;;;;;4983738;28;89093;-66
2022/04/22 10:32:35;;;;;;;2.83;2.10;;;21.50;40.60;;;;;;4975633;28;89037;-67
2022/04/22 10:35:05;;;;;;;4.57;2.20;;;21.50;40.60;;;;;;4978905;28;88631;-66
2022/04/22 10:37:34;;;;;;;4.53;2.30;;;21.50;40.50;;;;;;4986519;28;93349;-66
2022/04/22 10:40:02;;;;;;;1.80;1.70;;;21.60;40.50;;;;;;4985695;28;90361;-65
2022/04/22 10:42:34;;;;;;;3.40;2.20;;;21.50;40.30;;;;;;4990653;28;88947;-65
2022/04/22 10:47:49;;;;;;;1.73;1.63;;;21.50;40.30;;;;;;4978401;28;90975;-65
2022/04/22 10:50:25;;;;;;;2.17;1.67;;;21.50;40.20;;;;;;4994597;28;91267;-66
2022/04/22 10:53:01;;;;;;;3.93;1.77;;;21.40;40.10;;;;;;4976020;28;88893;-65
2022/04/22 10:55:31;;;;;;;2.10;1.87;;;21.40;40.10;;;;;;4980238;28;88595;-67
2022/04/22 10:58:26;;;;;;;2.30;2.10;;;21.30;40.00;;;;;;4976008;28;89530;-66
2022/04/22 11:00:57;;;;;;;1.97;1.53;;;21.30;40.00;;;;;;4979516;28;92456;-66
2022/04/22 11:03:25;;;;;;;4.83;2.20;;;21.40;40.00;;;;;;4976831;28;89190;-67
2022/04/22 11:05:56;;;;;;;1.90;1.60;;;21.50;40.00;;;;;;4979639;28;88400;-66
2022/04/22 11:08:26;;;;;;;3.00;1.83;;;21.50;39.90;;;;;;4977237;28;90650;-69
2022/04/22 11:11:18;;;;;;;3.10;1.97;;;21.50;39.70;;;;;;4978997;28;89021;-67
2022/04/22 11:13:50;;;;;;;2.73;2.10;;;21.50;39.70;;;;;;4977373;28;89358;-68
2022/04/22 11:16:29;;;;;;;1.83;1.70;;;21.50;39.70;;;;;;4977283;28;88642;-68
2022/04/22 11:19:11;;;;;;;4.53;2.20;;;21.50;39.60;;;;;;4976955;28;92511;-67
2022/04/22 11:21:42;;;;;;;2.70;1.77;;;21.50;39.60;;;;;;4977390;28;90159;-67
2022/04/22 11:24:14;;;;;;;3.23;1.90;;;21.50;39.60;;;;;;4979217;28;88535;-67
2022/04/22 11:26:42;;;;;;;3.17;1.70;;;21.50;39.60;;;;;;4976453;28;88642;-67
2022/04/22 11:29:12;;;;;;;2.97;1.90;;;21.50;40.20;;;;;;4979135;28;90238;-66
2022/04/22 11:31:41;;;;;;;3.30;1.83;;;21.50;39.50;;;;;;4978344;28;90292;-67
2022/04/22 11:34:09;;;;;;;2.63;1.40;;;21.40;39.40;;;;;;4978419;28;88321;-67
2022/04/22 11:36:44;;;;;;;2.37;1.67;;;21.40;39.40;;;;;;4979045;28;88488;-70
2022/04/22 11:39:17;;;;;;;2.90;1.97;;;21.30;39.40;;;;;;4978609;28;90753;-69
2022/04/22 11:41:52;;;;;;;2.60;1.80;;;21.40;39.50;;;;;;4977675;28;90057;-70
2022/04/22 11:44:22;;;;;;;3.67;1.97;;;21.40;39.50;;;;;;4972214;28;88901;-66
2022/04/22 11:46:51;;;;;;;2.40;2.20;;;21.40;39.40;;;;;;4977287;28;88701;-67
2022/04/22 11:49:19;;;;;;;4.30;1.50;;;21.40;39.40;;;;;;4978759;28;93270;-67
2022/04/22 11:51:46;;;;;;;2.20;1.63;;;21.40;39.40;;;;;;4978459;28;90096;-67
2022/04/22 11:54:22;;;;;;;2.00;1.60;;;21.40;39.40;;;;;;4978546;28;88473;-66
2022/04/22 11:56:50;;;;;;;2.00;1.90;;;21.40;39.30;;;;;;4979521;28;88614;-67
2022/04/22 11:59:19;;;;;;;2.20;2.00;;;21.40;39.30;;;;;;4979656;28;90125;-67
2022/04/22 12:10:06;;;;;;;3.60;2.03;;;21.50;39.20;;;;;;4985576;28;90831;-67
2022/04/22 12:12:34;;;;;;;3.57;1.90;;;21.50;39.20;;;;;;4986766;28;93138;-67
2022/04/22 12:15:03;;;;;;;3.27;1.63;;;21.50;39.20;;;;;;4991188;28;89031;-70
2022/04/22 12:17:32;;;;;;;1.67;1.50;;;21.40;39.70;;;;;;4986777;28;88406;-71
2022/04/22 12:20:01;;;;;;;2.20;1.80;;;21.40;39.10;;;;;;4982730;28;90804;-70
2022/04/22 12:22:28;;;;;;;2.10;1.43;;;21.40;39.10;;;;;;4984113;28;90388;-70
2022/04/22 12:25:06;;;;;;;1.43;1.23;;;21.40;39.10;;;;;;4985678;28;88785;-71
2022/04/22 12:27:34;;;;;;;3.77;1.50;;;21.40;39.10;;;;;;4984499;28;88456;-70
2022/04/22 12:30:03;;;;;;;5.90;2.07;;;21.40;39.10;;;;;;4985443;28;92147;-71
2022/04/22 12:32:32;;;;;;;5.30;1.63;;;21.40;39.10;;;;;;4990144;28;88786;-71
2022/04/22 12:35:11;;;;;;;2.00;1.40;;;21.40;39.00;;;;;;4992601;28;88401;-71
2022/04/22 12:37:43;;;;;;;1.60;1.33;;;21.40;39.00;;;;;;4984511;28;88515;-70
2022/04/22 12:40:12;;;;;;;2.93;1.70;;;21.50;39.00;;;;;;4978803;28;90231;-71
2022/04/22 12:42:40;;;;;;;1.80;1.50;;;21.50;38.90;;;;;;4980554;28;89318;-70
2022/04/22 12:53:35;;;;;;;1.77;1.50;;;21.50;38.90;;;;;;4976836;28;92869;-65
2022/04/22 12:56:07;;;;;;;2.40;1.50;;;21.70;39.00;;;;;;4977218;28;90133;-65
2022/04/22 12:58:50;;;;;;;4.03;1.50;;;21.70;38.90;;;;;;4980279;28;88738;-65
2022/04/22 13:01:19;;;;;;;2.43;1.53;;;21.70;38.90;;;;;;4979645;28;89545;-64
2022/04/22 13:03:49;;;;;;;2.90;1.90;;;21.80;38.80;;;;;;4978280;28;90380;-67
2022/04/22 13:06:36;;;;;;;3.07;1.57;;;21.70;38.80;;;;;;4988780;28;88455;-65
2022/04/22 13:09:04;;;;;;;2.03;1.53;;;21.70;38.80;;;;;;4978707;28;89234;-65
2022/04/22 13:11:33;;;;;;;3.13;1.47;;;21.70;38.80;;;;;;4982869;28;91842;-65
2022/04/22 13:14:01;;;;;;;2.00;1.50;;;21.70;38.80;;;;;;4977697;28;90074;-65
2022/04/22 13:16:29;;;;;;;2.33;1.60;;;21.60;38.60;;;;;;4975959;28;89398;-65
2022/04/22 13:18:59;;;;;;;2.00;1.83;;;21.60;38.60;;;;;;4979838;28;88588;-64
2022/04/22 13:21:27;;;;;;;2.17;1.57;;;21.60;38.60;;;;;;4979712;28;90559;-68
2022/04/22 13:23:55;;;;;;;5.13;1.77;;;21.70;38.50;;;;;;4979956;28;89401;-67
2022/04/22 13:26:24;;;;;;;2.57;1.40;;;21.70;38.50;;;;;;4979920;28;91403;-68
2022/04/22 13:28:54;;;;;;;1.47;1.27;;;21.70;38.40;;;;;;4981797;28;88242;-69
2022/04/22 13:31:22;;;;;;;1.87;1.47;;;21.70;38.40;;;;;;4990984;28;90107;-68
2022/04/22 13:33:50;;;;;;;7.90;1.67;;;21.70;38.30;;;;;;4980499;28;88976;-68
2022/04/22 13:36:19;;;;;;;1.50;1.40;;;21.70;38.30;;;;;;4982490;28;88777;-68
2022/04/22 13:38:48;;;;;;;1.77;1.30;;;21.80;38.20;;;;;;4978171;28;88462;-68
2022/04/22 13:41:16;;;;;;;2.63;1.60;;;21.70;38.10;;;;;;4985215;28;93478;-67
2022/04/22 13:43:44;;;;;;;1.70;1.60;;;21.70;38.00;;;;;;4977940;28;90240;-68
2022/04/22 13:54:42;;;;;;;1.70;1.60;;;21.80;37.90;;;;;;4980310;28;90423;-68
2022/04/22 13:57:10;;;;;;;2.73;1.53;;;21.70;37.80;;;;;;4983749;28;89876;-69
2022/04/22 13:59:38;;;;;;;2.10;1.53;;;21.70;37.90;;;;;;4983898;28;88658;-68
2022/04/22 14:02:06;;;;;;;2.47;1.93;;;21.70;37.80;;;;;;4997200;28;90220;-69
2022/04/22 14:04:36;;;;;;;2.63;1.80;;;21.80;37.90;;;;;;4988448;28;91356;-68
2022/04/22 14:07:07;;;;;;;1.93;1.53;;;21.80;37.70;;;;;;4989256;28;88721;-68
2022/04/22 14:09:35;;;;;;;3.77;1.63;;;21.80;37.70;;;;;;4990524;28;88595;-69
2022/04/22 14:12:04;;;;;;;4.80;1.70;;;21.90;37.80;;;;;;4985637;28;91050;-67
2022/04/22 14:14:32;;;;;;;2.87;1.57;;;22.00;37.80;;;;;;4978889;28;90137;-68
2022/04/22 14:17:01;;;;;;;2.13;1.57;;;21.90;37.60;;;;;;4980320;28;88835;-68
2022/04/22 14:19:29;;;;;;;3.20;1.63;;;21.90;37.60;;;;;;4980170;28;88488;-68